Time;durP1;ratioP1;P1;durP2;ratioP2;P2;SDS_P1;SDS_P2;PMS_P1;PMS_P2;Temp;Humidity;BMP_temperature;BMP_pressure;BME280_temperature;BME280_humidity;BME280_pressure;Samples;Min_cycle;Max_cycle;Signal;HPM_P1;HPM_P2
2022/04/20 00:00:11;;;;;;;14.20;9.80;;;8.70;99.90;;;;;;5081083;28;20044;-81
2022/04/20 00:02:38;;;;;;;12.45;10.18;;;8.70;99.90;;;;;;5081194;28;20040;-79
2022/04/20 00:05:08;;;;;;;14.45;10.77;;;8.70;99.90;;;;;;5085192;28;20044;-80
2022/04/20 00:07:35;;;;;;;16.88;11.10;;;8.80;99.90;;;;;;5075904;28;20396;-79
2022/04/20 00:10:03;;;;;;;18.42;10.95;;;8.70;99.90;;;;;;5058474;28;20404;-79
2022/04/20 00:12:31;;;;;;;16.77;11.65;;;8.80;99.90;;;;;;5057696;28;20048;-79
2022/04/20 00:14:58;;;;;;;15.68;12.32;;;8.80;99.90;;;;;;5057835;28;20041;-79
2022/04/20 00:17:26;;;;;;;21.90;15.75;;;8.80;99.90;;;;;;5075620;28;20484;-79
2022/04/20 00:19:53;;;;;;;26.58;18.50;;;8.80;99.90;;;;;;5057610;28;20040;-79
2022/04/20 00:22:22;;;;;;;23.88;17.65;;;8.90;99.90;;;;;;5075478;28;20033;-79
2022/04/20 00:24:49;;;;;;;27.70;19.52;;;8.80;99.90;;;;;;5057745;28;20032;-79
2022/04/20 00:27:17;;;;;;;28.20;19.67;;;8.80;99.90;;;;;;5058114;28;20045;-79
2022/04/20 00:29:44;;;;;;;26.08;19.38;;;8.70;99.90;;;;;;5057447;28;20048;-79
2022/04/20 00:32:12;;;;;;;27.85;19.23;;;8.70;99.90;;;;;;5056921;28;20052;-79
2022/04/20 00:34:39;;;;;;;26.83;19.13;;;8.70;99.90;;;;;;5057422;28;20150;-79
2022/04/20 00:37:07;;;;;;;26.13;20.23;;;8.70;99.90;;;;;;5075585;28;20154;-79
2022/04/20 00:39:37;;;;;;;26.23;18.98;;;8.80;99.90;;;;;;5075104;28;20059;-79
2022/04/20 00:42:06;;;;;;;23.08;17.98;;;8.80;99.90;;;;;;5075378;28;20075;-79
2022/04/20 00:44:34;;;;;;;20.77;16.23;;;8.70;99.90;;;;;;5056992;28;20056;-79
2022/04/20 00:47:03;;;;;;;21.20;15.95;;;8.70;1.00;;;;;;5075104;28;20403;-79
2022/04/20 00:49:32;;;;;;;21.10;15.55;;;8.60;1.00;;;;;;5057173;28;20052;-79
2022/04/20 00:51:59;;;;;;;21.60;14.80;;;8.60;41.30;;;;;;5075743;28;20040;-79
2022/04/20 00:54:29;;;;;;;19.52;13.90;;;8.60;1.00;;;;;;5057586;28;20410;-79
2022/04/20 00:56:59;;;;;;;18.40;14.25;;;8.50;1.00;;;;;;5061245;28;20053;-78
2022/04/20 00:59:31;;;;;;;20.60;14.82;;;8.50;1.00;;;;;;5049623;28;20045;-78
2022/04/20 01:02:01;;;;;;;22.00;15.65;;;8.60;99.90;;;;;;5058829;28;20462;-79
2022/04/20 01:04:31;;;;;;;19.35;15.15;;;8.50;99.90;;;;;;5068407;28;20052;-79
2022/04/20 01:07:16;;;;;;;20.48;15.65;;;8.50;99.90;;;;;;5059741;28;20119;-79
2022/04/20 01:10:16;;;;;;;27.58;18.90;;;8.40;1.00;;;;;;5062406;28;20049;-80
2022/04/20 01:12:55;;;;;;;25.30;19.05;;;8.20;1.00;;;;;;5096500;28;20059;-81
2022/04/20 01:15:38;;;;;;;29.48;19.00;;;8.10;99.90;;;;;;5106303;28;20361;-80
2022/04/20 01:18:22;;;;;;;26.35;18.50;;;8.10;99.90;;;;;;5072448;28;20048;-80
2022/04/20 01:20:56;;;;;;;23.38;18.83;;;8.00;1.00;;;;;;5080879;28;20076;-80
2022/04/20 01:23:45;;;;;;;22.92;16.90;;;8.00;1.00;;;;;;5084133;28;20060;-80
2022/04/20 01:26:40;;;;;;;22.20;17.27;;;8.10;99.90;;;;;;5062555;28;20052;-80
2022/04/20 01:30:06;;;;;;;24.33;18.00;;;8.10;1.00;;;;;;5041135;28;20049;-80
2022/04/20 01:32:56;;;;;;;22.77;17.17;;;8.10;28.10;;;;;;5017856;28;20131;-81
2022/04/20 01:35:32;;;;;;;25.65;17.88;;;8.10;1.00;;;;;;5032934;28;20157;-80
2022/04/20 01:38:00;;;;;;;21.88;17.15;;;8.10;99.90;;;;;;5039905;28;20047;-81
2022/04/20 01:40:30;;;;;;;23.40;16.40;;;8.10;99.90;;;;;;5036777;28;20051;-80
2022/04/20 01:42:57;;;;;;;20.00;15.48;;;8.10;1.00;;;;;;5035690;28;20049;-80
2022/04/20 01:45:26;;;;;;;24.77;16.75;;;8.10;99.90;;;;;;5035875;28;20067;-80
2022/04/20 01:48:12;;;;;;;20.42;16.65;;;8.00;38.10;;;;;;5052774;28;20531;-80
2022/04/20 01:53:57;;;;;;;22.45;17.52;;;8.10;99.90;;;;;;5056211;28;20041;-80
2022/04/20 01:56:43;;;;;;;25.63;17.75;;;8.10;1.00;;;;;;5075123;28;20051;-80
2022/04/20 01:59:33;;;;;;;18.05;14.45;;;8.10;1.00;;;;;;5045309;28;20053;-80
2022/04/20 02:05:24;;;;;;;18.67;14.35;;;8.00;1.00;;;;;;5044173;28;20040;-80
2022/04/20 02:08:10;;;;;;;;;;;8.00;99.90;;;;;;5057432;28;20054;-79
2022/04/20 02:11:11;;;;;;;20.38;15.13;;;8.00;99.90;;;;;;5058435;28;20367;-79
2022/04/20 02:13:39;;;;;;;18.67;16.17;;;8.00;99.90;;;;;;5078429;28;20218;-79
2022/04/20 02:16:07;;;;;;;19.00;14.82;;;8.00;99.90;;;;;;5059207;28;20041;-80
2022/04/20 02:19:13;;;;;;;22.10;15.20;;;8.00;99.90;;;;;;5058868;28;20037;-79
2022/04/20 02:21:47;;;;;;;18.90;15.52;;;8.00;99.90;;;;;;5056056;28;20480;-80
2022/04/20 02:24:15;;;;;;;20.13;15.43;;;8.10;99.90;;;;;;5055487;28;20048;-79
2022/04/20 02:26:45;;;;;;;18.10;15.18;;;8.10;99.90;;;;;;5056373;28;20388;-79
2022/04/20 02:29:12;;;;;;;23.52;15.30;;;8.10;99.90;;;;;;5055884;28;20135;-79
2022/04/20 02:31:40;;;;;;;19.95;15.55;;;8.10;99.90;;;;;;5073495;28;20047;-80
2022/04/20 02:34:07;;;;;;;18.80;15.57;;;8.10;99.90;;;;;;5055709;28;20425;-80
2022/04/20 02:36:35;;;;;;;22.17;17.17;;;8.00;1.00;;;;;;5055852;28;20500;-80
2022/04/20 02:39:03;;;;;;;21.45;16.80;;;8.00;1.00;;;;;;5056418;28;20048;-80
2022/04/20 02:41:31;;;;;;;21.58;17.08;;;7.90;99.90;;;;;;5073961;28;20071;-80
2022/04/20 02:44:00;;;;;;;21.33;16.95;;;7.90;99.90;;;;;;5073473;28;20040;-80
2022/04/20 02:46:28;;;;;;;21.00;17.10;;;7.80;1.00;;;;;;5073315;28;20032;-79
2022/04/20 02:48:55;;;;;;;19.15;16.40;;;7.80;99.90;;;;;;5073981;28;20052;-80
2022/04/20 02:51:23;;;;;;;19.33;15.02;;;7.80;99.90;;;;;;5056400;28;20064;-80
2022/04/20 02:53:51;;;;;;;20.88;15.85;;;7.80;40.10;;;;;;5075736;28;20047;-80
2022/04/20 02:56:19;;;;;;;20.73;17.08;;;7.70;1.00;;;;;;5056162;28;20040;-78
2022/04/20 02:58:50;;;;;;;21.65;17.30;;;7.70;1.00;;;;;;5074252;28;20037;-79
2022/04/20 03:01:20;;;;;;;20.75;15.27;;;7.70;1.00;;;;;;5055945;28;20053;-79
2022/04/20 03:03:49;;;;;;;16.15;14.25;;;7.70;1.00;;;;;;5055895;28;20059;-79
2022/04/20 03:06:42;;;;;;;17.60;14.48;;;7.60;1.00;;;;;;5069821;28;20048;-79
2022/04/20 03:09:19;;;;;;;18.45;16.40;;;7.60;1.00;;;;;;5055766;28;20048;-79
2022/04/20 03:11:46;;;;;;;20.58;16.80;;;7.60;1.00;;;;;;5055663;28;20044;-79
2022/04/20 03:14:18;;;;;;;18.42;16.42;;;7.60;99.90;;;;;;5055777;28;20437;-80
2022/04/20 03:16:48;;;;;;;20.35;16.70;;;7.60;5.40;;;;;;5055633;28;20041;-78
2022/04/20 03:19:15;;;;;;;17.20;14.77;;;7.60;1.00;;;;;;5055194;28;20055;-76
2022/04/20 03:21:45;;;;;;;16.27;13.75;;;7.60;1.00;;;;;;5055845;28;20052;-78
2022/04/20 03:24:13;;;;;;;13.13;11.63;;;7.50;1.00;;;;;;5057213;28;20048;-78
2022/04/20 03:26:52;;;;;;;13.50;11.73;;;7.40;99.90;;;;;;5058902;28;20072;-79
2022/04/20 03:29:41;;;;;;;13.25;11.05;;;7.30;99.90;;;;;;5075881;28;20158;-79
2022/04/20 03:32:12;;;;;;;14.27;11.52;;;7.30;99.90;;;;;;5069754;28;20048;-79
2022/04/20 03:34:41;;;;;;;14.38;10.93;;;7.20;99.90;;;;;;5081123;28;20040;-80
2022/04/20 03:37:10;;;;;;;11.63;10.32;;;7.20;1.00;;;;;;5070898;28;20041;-80
2022/04/20 03:39:41;;;;;;;13.25;11.10;;;7.20;1.00;;;;;;5079480;28;20052;-80
2022/04/20 03:42:09;;;;;;;10.57;9.48;;;7.20;1.00;;;;;;5079031;28;20050;-80
2022/04/20 03:44:38;;;;;;;11.13;9.20;;;7.30;99.90;;;;;;5078506;28;20079;-78
2022/04/20 03:47:06;;;;;;;10.15;7.68;;;7.30;99.90;;;;;;5078870;28;20492;-80
2022/04/20 03:49:34;;;;;;;9.00;7.38;;;7.20;99.90;;;;;;5096497;28;20050;-79
2022/04/20 03:52:07;;;;;;;9.18;7.03;;;7.20;99.90;;;;;;5078644;28;20052;-80
2022/04/20 03:54:36;;;;;;;8.00;6.35;;;7.20;99.90;;;;;;5078612;28;20478;-79
2022/04/20 03:57:05;;;;;;;8.15;6.47;;;7.10;57.40;;;;;;5078930;28;20555;-79
2022/04/20 03:59:46;;;;;;;8.10;6.25;;;7.10;54.80;;;;;;5074916;28;20470;-80
2022/04/20 04:02:17;;;;;;;8.57;6.55;;;7.00;99.90;;;;;;5061651;28;20048;-79
2022/04/20 04:04:52;;;;;;;9.40;5.53;;;7.00;99.90;;;;;;5046330;28;20404;-80
2022/04/20 04:07:37;;;;;;;7.40;4.32;;;6.90;99.90;;;;;;5047579;28;20044;-79
2022/04/20 04:10:09;;;;;;;6.78;4.88;;;6.90;99.90;;;;;;5063082;28;20055;-79
2022/04/20 04:12:37;;;;;;;8.23;5.63;;;6.90;99.90;;;;;;5057406;28;20071;-78
2022/04/20 04:15:07;;;;;;;5.88;4.57;;;6.90;99.90;;;;;;5057751;28;20135;-78
2022/04/20 04:17:35;;;;;;;6.70;4.40;;;6.90;99.90;;;;;;5057250;28;20101;-78
2022/04/20 04:20:05;;;;;;;4.82;3.38;;;6.90;99.90;;;;;;5057182;28;20032;-77
2022/04/20 04:22:33;;;;;;;5.65;3.17;;;6.80;99.90;;;;;;5037247;28;20053;-78
2022/04/20 04:25:21;;;;;;;4.22;2.85;;;6.80;99.90;;;;;;5054428;28;20041;-78
2022/04/20 04:27:49;;;;;;;4.72;3.45;;;6.80;99.90;;;;;;5037123;28;20049;-78
2022/04/20 04:30:17;;;;;;;5.95;4.30;;;6.80;99.90;;;;;;5054261;28;20492;-78
2022/04/20 04:32:55;;;;;;;7.93;5.25;;;6.90;99.90;;;;;;5056733;28;20040;-78
2022/04/20 04:35:25;;;;;;;7.40;4.70;;;6.90;99.90;;;;;;5057295;28;20059;-78
2022/04/20 04:37:52;;;;;;;11.15;6.60;;;6.90;99.90;;;;;;5073433;28;20439;-80
2022/04/20 04:40:23;;;;;;;10.05;5.68;;;6.90;99.90;;;;;;5057472;28;20051;-79
2022/04/20 04:42:53;;;;;;;8.15;4.95;;;6.90;99.90;;;;;;5056515;28;20052;-79
2022/04/20 04:50:59;;;;;;;14.18;8.50;;;7.00;99.90;;;;;;5056949;28;20056;-78
2022/04/20 04:53:27;;;;;;;15.52;9.35;;;7.00;99.90;;;;;;5055402;28;20036;-78
2022/04/20 04:55:55;;;;;;;12.95;8.55;;;7.10;99.90;;;;;;5078427;28;20040;-76
2022/04/20 04:58:22;;;;;;;17.73;8.88;;;7.10;99.90;;;;;;5078714;28;20048;-75
2022/04/20 05:00:51;;;;;;;10.63;6.70;;;7.10;99.90;;;;;;5065581;28;20048;-75
2022/04/20 05:03:24;;;;;;;11.85;7.45;;;7.20;99.90;;;;;;5058614;28;20504;-74
2022/04/20 05:05:53;;;;;;;8.48;6.05;;;7.20;52.30;;;;;;5062888;28;20054;-77
2022/04/20 05:08:42;;;;;;;9.30;6.28;;;7.10;1.00;;;;;;5081815;28;20056;-76
2022/04/20 05:11:10;;;;;;;10.77;6.78;;;7.10;99.90;;;;;;5056023;28;20503;-76
2022/04/20 05:13:37;;;;;;;8.45;6.57;;;7.10;99.90;;;;;;5076343;28;20047;-76
2022/04/20 05:16:05;;;;;;;10.10;7.28;;;7.20;99.90;;;;;;5065961;28;20420;-75
2022/04/20 05:18:33;;;;;;;9.38;6.38;;;7.40;99.90;;;;;;5074905;28;20075;-77
2022/04/20 05:21:03;;;;;;;7.28;6.00;;;7.40;99.90;;;;;;5082757;28;20115;-75
2022/04/20 05:23:31;;;;;;;10.57;6.50;;;7.40;99.90;;;;;;5065904;28;20044;-75
2022/04/20 05:26:00;;;;;;;10.23;6.82;;;7.30;99.90;;;;;;5058114;28;20532;-75
2022/04/20 05:28:28;;;;;;;8.10;5.97;;;7.30;99.90;;;;;;5059518;28;20044;-76
2022/04/20 05:30:56;;;;;;;8.35;5.60;;;7.30;99.90;;;;;;5058359;28;20136;-77
2022/04/20 05:33:24;;;;;;;11.80;6.60;;;7.20;99.90;;;;;;5076279;28;20048;-76
2022/04/20 05:35:51;;;;;;;11.57;6.70;;;7.20;99.90;;;;;;5057938;28;20120;-76
2022/04/20 05:41:40;;;;;;;11.50;7.72;;;7.30;99.90;;;;;;5063511;28;20051;-76
2022/04/20 05:44:13;;;;;;;9.60;7.65;;;7.30;99.90;;;;;;5093905;28;20055;-75
2022/04/20 05:46:42;;;;;;;11.93;7.22;;;7.40;1.00;;;;;;5083008;28;20131;-75
2022/04/20 05:49:19;;;;;;;12.85;9.38;;;7.50;33.90;;;;;;5077809;28;20051;-77
2022/04/20 05:51:48;;;;;;;13.45;9.63;;;7.50;1.00;;;;;;5075024;28;20434;-76
2022/04/20 05:54:16;;;;;;;17.08;10.05;;;7.60;1.00;;;;;;5054695;28;20507;-76
2022/04/20 05:56:45;;;;;;;10.95;8.30;;;7.60;1.00;;;;;;5048705;28;20562;-77
2022/04/20 05:59:13;;;;;;;13.27;8.90;;;7.60;1.00;;;;;;5053753;28;20061;-76
2022/04/20 06:01:43;;;;;;;12.77;8.88;;;7.60;1.00;;;;;;5063766;28;20492;-76
2022/04/20 06:04:21;;;;;;;12.13;8.38;;;7.60;1.00;;;;;;5061795;28;20531;-76
2022/04/20 06:07:04;;;;;;;11.77;8.02;;;7.60;1.00;;;;;;5070369;28;20056;-76
2022/04/20 06:09:43;;;;;;;13.02;7.78;;;7.60;99.90;;;;;;5064012;28;20112;-74
2022/04/20 06:12:14;;;;;;;10.50;7.75;;;7.60;99.90;;;;;;5090332;28;20467;-75
2022/04/20 06:15:00;;;;;;;9.82;6.88;;;7.60;1.00;;;;;;5081363;28;20055;-75
2022/04/20 06:17:58;;;;;;;9.13;6.72;;;7.60;99.90;;;;;;5057622;28;20053;-76
2022/04/20 06:20:25;;;;;;;10.80;8.15;;;7.70;99.90;;;;;;5067547;28;20056;-75
2022/04/20 06:23:11;;;;;;;10.90;7.30;;;7.70;99.90;;;;;;5072059;28;20055;-75
2022/04/20 06:25:59;;;;;;;12.60;9.05;;;7.60;1.00;;;;;;5048022;28;20052;-75
2022/04/20 06:28:38;;;;;;;10.85;8.55;;;7.70;1.00;;;;;;5074250;28;20128;-76
2022/04/20 06:31:29;;;;;;;10.15;7.72;;;7.70;99.90;;;;;;5056438;28;20568;-76
2022/04/20 06:34:20;;;;;;;8.75;6.85;;;7.70;1.00;;;;;;5062946;28;20053;-74
2022/04/20 06:37:08;;;;;;;8.48;6.72;;;7.80;99.90;;;;;;5059694;28;20099;-74
2022/04/20 06:39:49;;;;;;;8.48;7.30;;;7.80;99.90;;;;;;5055627;28;20444;-75
2022/04/20 06:42:35;;;;;;;;;;;7.80;99.90;;;;;;5055860;28;20044;-75
2022/04/20 06:45:19;;;;;;;11.77;7.85;;;7.80;93.10;;;;;;5056121;28;20020;-77
2022/04/20 06:48:07;;;;;;;12.85;9.07;;;7.80;1.00;;;;;;5032871;28;20056;-74
2022/04/20 06:50:48;;;;;;;14.88;10.75;;;7.90;28.20;;;;;;5045029;28;20053;-77
2022/04/20 06:59:09;;;;;;;18.08;11.73;;;7.90;99.90;;;;;;5037194;28;20068;-76
2022/04/20 07:02:06;;;;;;;15.65;10.98;;;8.00;1.00;;;;;;5039669;28;20049;-75
2022/04/20 07:05:03;;;;;;;13.18;9.43;;;8.00;1.00;;;;;;5041182;28;20056;-75
2022/04/20 07:07:53;;;;;;;15.95;11.30;;;8.10;99.90;;;;;;5056685;28;20040;-75
2022/04/20 07:10:34;;;;;;;16.25;11.13;;;8.20;1.00;;;;;;5040791;28;20049;-76
2022/04/20 07:13:05;;;;;;;13.20;9.27;;;8.20;1.00;;;;;;5040381;28;20497;-76
2022/04/20 07:15:33;;;;;;;16.05;10.73;;;8.10;1.00;;;;;;5041018;28;20048;-76
2022/04/20 07:18:05;;;;;;;14.02;8.77;;;8.30;1.00;;;;;;5041327;28;20053;-75
2022/04/20 07:20:51;;;;;;;12.32;8.77;;;8.40;1.00;;;;;;5056918;28;20143;-75
2022/04/20 07:23:47;;;;;;;11.15;7.53;;;8.50;1.00;;;;;;5033221;28;20044;-75
2022/04/20 07:26:46;;;;;;;9.30;7.00;;;8.50;1.00;;;;;;5041673;28;20080;-76
2022/04/20 07:29:22;;;;;;;14.35;9.77;;;8.50;99.90;;;;;;5058987;28;20044;-77
2022/04/20 07:32:01;;;;;;;9.95;6.75;;;8.40;1.00;;;;;;5056161;28;20049;-76
2022/04/20 07:35:09;;;;;;;10.60;6.32;;;8.30;71.20;;;;;;5045188;28;20053;-76
2022/04/20 07:38:00;;;;;;;10.05;6.00;;;8.10;99.90;;;;;;5022739;28;20080;-76
2022/04/20 07:40:46;;;;;;;8.20;4.82;;;7.90;1.00;;;;;;5053992;28;20060;-77
2022/04/20 07:43:23;;;;;;;9.23;5.53;;;7.80;1.00;;;;;;5057837;28;20114;-76
2022/04/20 07:46:22;;;;;;;8.32;5.47;;;8.00;1.00;;;;;;5045487;28;20513;-75
2022/04/20 07:52:24;;;;;;;15.40;11.32;;;8.80;1.00;;;;;;5073572;28;20044;-76
2022/04/20 07:55:09;;;;;;;12.60;8.00;;;9.10;99.90;;;;;;5068553;28;20049;-76
2022/04/20 07:57:46;;;;;;;11.45;7.07;;;9.20;1.00;;;;;;5075952;28;20128;-76
2022/04/20 08:00:33;;;;;;;8.65;6.20;;;9.10;1.00;;;;;;5050241;28;20048;-76
2022/04/20 08:03:20;;;;;;;16.42;11.27;;;9.00;1.00;;;;;;5095188;28;20498;-75
2022/04/20 08:05:51;;;;;;;28.85;20.27;;;8.90;99.90;;;;;;5057400;28;20052;-76
2022/04/20 08:08:21;;;;;;;20.13;11.95;;;8.90;1.00;;;;;;5060533;28;20111;-76
2022/04/20 08:10:49;;;;;;;13.73;9.27;;;8.80;1.00;;;;;;5059538;28;20072;-76
2022/04/20 08:16:07;;;;;;;17.98;12.10;;;8.80;99.90;;;;;;5059508;28;20040;-76
2022/04/20 08:18:47;;;;;;;16.17;12.02;;;8.90;99.90;;;;;;5059655;28;20041;-75
2022/04/20 08:21:33;;;;;;;14.65;10.55;;;9.00;1.00;;;;;;5077381;28;20056;-75
2022/04/20 08:24:03;;;;;;;14.57;10.35;;;9.00;1.00;;;;;;5079369;28;20036;-75
2022/04/20 08:26:30;;;;;;;15.85;11.63;;;8.90;1.00;;;;;;5060540;28;20127;-75
2022/04/20 08:28:58;;;;;;;15.65;11.05;;;8.80;1.00;;;;;;5077449;28;20428;-75
2022/04/20 08:31:25;;;;;;;17.73;12.18;;;8.70;56.60;;;;;;5062558;28;20056;-75
2022/04/20 08:33:53;;;;;;;19.58;14.40;;;8.70;91.50;;;;;;5079419;28;20499;-75
2022/04/20 08:36:20;;;;;;;19.70;13.45;;;8.70;1.00;;;;;;5077209;28;20119;-75
2022/04/20 08:38:48;;;;;;;15.38;11.18;;;8.70;1.00;;;;;;5060767;28;20050;-75
2022/04/20 08:41:17;;;;;;;16.80;13.30;;;8.70;1.00;;;;;;5086316;28;20044;-75
2022/04/20 08:43:44;;;;;;;21.35;16.48;;;8.70;1.00;;;;;;5075930;28;20041;-75
2022/04/20 08:46:12;;;;;;;26.10;17.38;;;8.80;99.90;;;;;;5092403;28;20482;-77
2022/04/20 08:48:39;;;;;;;21.17;16.23;;;8.90;99.90;;;;;;5079551;28;20036;-77
2022/04/20 08:51:08;;;;;;;26.38;17.67;;;9.00;1.00;;;;;;5056755;28;20060;-75
2022/04/20 08:53:36;;;;;;;25.75;16.20;;;9.20;99.90;;;;;;5054095;28;20068;-76
2022/04/20 08:58:53;;;;;;;18.27;13.98;;;9.40;99.90;;;;;;5068307;28;20123;-76
2022/04/20 09:01:21;;;;;;;18.88;15.10;;;9.50;1.00;;;;;;5067440;28;20039;-80
2022/04/20 09:03:48;;;;;;;21.52;17.02;;;9.60;1.00;;;;;;5071845;28;20032;-76
2022/04/20 09:06:19;;;;;;;21.02;16.10;;;9.70;56.60;;;;;;5048436;28;20136;-76
2022/04/20 09:08:47;;;;;;;24.02;17.45;;;9.90;1.00;;;;;;5065078;28;20037;-76
2022/04/20 09:11:14;;;;;;;27.42;17.77;;;10.10;1.00;;;;;;5058430;28;20032;-76
2022/04/20 09:13:44;;;;;;;25.00;19.30;;;10.20;6.70;;;;;;5072198;28;20055;-76
2022/04/20 09:16:14;;;;;;;22.88;18.30;;;10.00;99.90;;;;;;5076158;28;20049;-76
2022/04/20 09:18:43;;;;;;;25.83;18.45;;;10.10;99.90;;;;;;5076759;28;20033;-76
2022/04/20 09:21:11;;;;;;;22.85;18.55;;;10.10;1.00;;;;;;5060795;28;20044;-77
2022/04/20 09:23:40;;;;;;;24.10;18.73;;;10.10;99.90;;;;;;5060581;28;20052;-76
2022/04/20 09:26:13;;;;;;;19.70;16.23;;;10.10;1.00;;;;;;5054277;28;20479;-75
2022/04/20 09:28:44;;;;;;;20.58;16.08;;;10.20;99.90;;;;;;5052885;28;20049;-76
2022/04/20 09:31:13;;;;;;;21.45;17.85;;;10.10;1.00;;;;;;5077638;28;20094;-81
2022/04/20 09:33:45;;;;;;;20.58;17.25;;;9.90;1.00;;;;;;5076648;28;20040;-75
2022/04/20 09:36:14;;;;;;;21.73;16.90;;;10.10;5.90;;;;;;5075460;28;20040;-76
2022/04/20 09:39:02;;;;;;;21.13;16.70;;;10.20;1.00;;;;;;5057353;28;20048;-76
2022/04/20 09:41:34;;;;;;;18.30;15.25;;;10.30;3.20;;;;;;5057045;28;20048;-76
2022/04/20 09:44:09;;;;;;;18.85;14.82;;;10.60;99.90;;;;;;5057469;28;20148;-76
2022/04/20 09:49:38;;;;;;;16.00;14.10;;;11.00;99.90;;;;;;5058183;28;20072;-76
2022/04/20 09:52:11;;;;;;;18.70;15.07;;;11.10;1.00;;;;;;5069267;28;20043;-76
2022/04/20 09:54:38;;;;;;;17.05;14.23;;;11.30;1.00;;;;;;5055533;28;20041;-76
2022/04/20 09:57:11;;;;;;;19.95;16.20;;;11.40;1.00;;;;;;5050917;28;20047;-78
2022/04/20 09:59:40;;;;;;;23.20;17.17;;;11.50;99.90;;;;;;5071219;28;20546;-76
2022/04/20 10:02:15;;;;;;;20.73;16.33;;;11.60;1.00;;;;;;5074454;28;20059;-76
2022/04/20 10:04:44;;;;;;;24.17;18.37;;;11.40;1.00;;;;;;5062269;28;20094;-75
2022/04/20 10:07:12;;;;;;;17.63;14.88;;;11.20;1.00;;;;;;5079919;28;20041;-76
2022/04/20 10:09:39;;;;;;;18.13;15.40;;;10.90;1.00;;;;;;5084407;28;20048;-76
2022/04/20 10:12:09;;;;;;;18.13;15.63;;;10.60;1.00;;;;;;5086891;28;20057;-75
2022/04/20 10:17:27;;;;;;;19.73;15.68;;;10.60;99.90;;;;;;5081688;28;20060;-76
2022/04/20 10:19:55;;;;;;;20.92;15.43;;;10.70;1.00;;;;;;5083877;28;20053;-76
2022/04/20 10:22:24;;;;;;;20.27;18.13;;;10.80;1.00;;;;;;5079475;28;20037;-76
2022/04/20 10:24:53;;;;;;;26.38;19.95;;;10.90;1.00;;;;;;5056982;28;20037;-77
2022/04/20 10:27:29;;;;;;;20.55;16.67;;;10.90;99.90;;;;;;5058630;28;20045;-76
2022/04/20 10:29:59;;;;;;;19.33;16.70;;;10.90;99.90;;;;;;5058299;28;20051;-76
2022/04/20 10:32:38;;;;;;;22.30;17.38;;;10.80;1.00;;;;;;5066960;28;20389;-76
2022/04/20 10:35:11;;;;;;;20.52;17.98;;;10.70;99.90;;;;;;5048597;28;20048;-76
2022/04/20 10:38:11;;;;;;;24.27;20.10;;;10.40;99.90;;;;;;5049174;28;20135;-77
2022/04/20 10:41:12;;;;;;;22.25;18.73;;;10.20;1.00;;;;;;5011531;28;20128;-76
2022/04/20 10:43:43;;;;;;;23.13;18.92;;;10.10;99.90;;;;;;5059741;28;20101;-77
2022/04/20 10:46:16;;;;;;;22.60;18.20;;;10.00;1.00;;;;;;5051355;28;20140;-76
2022/04/20 10:48:55;;;;;;;20.90;17.27;;;10.00;1.00;;;;;;5078982;28;20510;-76
2022/04/20 10:51:24;;;;;;;29.42;22.67;;;10.10;1.00;;;;;;5077753;28;20059;-78
2022/04/20 10:53:53;;;;;;;28.85;21.75;;;10.20;99.90;;;;;;5060388;28;20171;-76
2022/04/20 10:56:22;;;;;;;25.77;20.42;;;10.30;99.90;;;;;;5088936;28;20040;-78
2022/04/20 10:59:10;;;;;;;38.22;20.90;;;10.70;99.90;;;;;;5087530;28;20040;-78
2022/04/20 11:02:06;;;;;;;26.00;18.92;;;11.30;99.90;;;;;;5068773;28;20056;-76
2022/04/20 11:04:39;;;;;;;26.15;19.80;;;11.60;99.90;;;;;;5078447;28;20036;-76
2022/04/20 11:07:34;;;;;;;28.40;21.83;;;11.70;7.20;;;;;;5079402;28;20554;-75
2022/04/20 11:10:06;;;;;;;22.35;18.63;;;12.10;1.00;;;;;;5078169;28;20048;-77
2022/04/20 11:19:08;;;;;;;18.98;14.27;;;13.20;1.00;;;;;;5061052;28;20040;-75
2022/04/20 11:22:07;;;;;;;20.17;15.07;;;13.50;99.90;;;;;;5060708;28;20448;-76
2022/04/20 11:24:36;;;;;;;19.60;14.48;;;13.50;99.90;;;;;;5077166;28;20044;-76
2022/04/20 11:27:04;;;;;;;18.33;14.70;;;13.60;99.90;;;;;;5059278;28;20059;-75
2022/04/20 11:29:32;;;;;;;17.58;13.98;;;13.70;99.90;;;;;;5077583;28;20079;-79
2022/04/20 11:32:02;;;;;;;15.60;12.73;;;13.30;99.90;;;;;;5076933;28;20063;-76
2022/04/20 11:34:41;;;;;;;22.30;16.75;;;13.20;99.90;;;;;;5058643;28;20118;-77
2022/04/20 11:37:10;;;;;;;17.30;13.05;;;13.10;99.90;;;;;;5063861;28;20144;-76
2022/04/20 11:39:38;;;;;;;14.40;11.90;;;13.40;78.70;;;;;;5071609;28;20048;-75
2022/04/20 11:42:07;;;;;;;18.90;13.65;;;13.60;49.90;;;;;;5076173;28;20461;-77
2022/04/20 11:44:38;;;;;;;16.17;12.85;;;13.80;1.00;;;;;;5063431;28;20047;-76
2022/04/20 11:47:16;;;;;;;16.08;13.73;;;13.90;1.00;;;;;;5052091;28;20055;-79
2022/04/20 11:49:48;;;;;;;16.70;12.57;;;14.20;1.00;;;;;;5077985;28;20033;-78
2022/04/20 11:52:22;;;;;;;21.05;13.23;;;14.20;1.00;;;;;;5059873;28;20060;-77
2022/04/20 11:55:07;;;;;;;18.35;13.82;;;14.30;1.00;;;;;;5062886;28;20099;-78
2022/04/20 11:57:35;;;;;;;16.90;13.02;;;14.20;1.00;;;;;;5062637;28;20040;-75
2022/04/20 12:00:04;;;;;;;20.35;14.52;;;14.00;1.00;;;;;;5103251;28;20119;-76
2022/04/20 12:02:40;;;;;;;28.45;19.23;;;13.60;1.00;;;;;;5097060;28;20048;-76
2022/04/20 12:05:16;;;;;;;25.02;19.05;;;13.40;1.00;;;;;;5078381;28;20040;-76
2022/04/20 12:07:44;;;;;;;28.73;20.40;;;13.30;1.00;;;;;;5100188;28;20115;-76
2022/04/20 12:10:15;;;;;;;25.23;18.63;;;13.20;1.00;;;;;;5067266;28;20040;-77
2022/04/20 12:12:43;;;;;;;25.02;19.23;;;13.10;1.00;;;;;;5077428;28;20046;-76
2022/04/20 12:15:11;;;;;;;19.35;14.50;;;13.20;1.00;;;;;;5076893;28;20132;-76
2022/04/20 12:17:39;;;;;;;20.52;15.60;;;13.30;1.00;;;;;;5062260;28;20116;-76
2022/04/20 12:20:09;;;;;;;22.48;19.00;;;13.60;1.00;;;;;;5086579;28;20067;-77
2022/04/20 12:22:40;;;;;;;26.38;17.38;;;13.90;1.00;;;;;;5063281;28;20143;-77
2022/04/20 12:25:11;;;;;;;20.00;16.63;;;13.80;1.00;;;;;;5086185;28;20415;-77
2022/04/20 12:27:54;;;;;;;24.95;16.50;;;13.60;1.00;;;;;;5070946;28;20068;-77
2022/04/20 12:30:37;;;;;;;15.68;12.35;;;13.80;1.00;;;;;;5097604;28;20044;-77
2022/04/20 12:33:05;;;;;;;21.70;14.98;;;13.90;1.00;;;;;;5096047;28;20048;-79
2022/04/20 12:35:34;;;;;;;17.92;14.40;;;14.00;1.00;;;;;;5093282;28;20416;-77
2022/04/20 12:38:16;;;;;;;21.42;16.13;;;13.80;1.00;;;;;;5061454;28;20045;-75
2022/04/20 12:40:45;;;;;;;17.98;14.63;;;13.60;1.00;;;;;;5077072;28;20052;-75
2022/04/20 12:43:14;;;;;;;22.02;14.15;;;13.60;1.00;;;;;;5068668;28;20040;-75
2022/04/20 12:45:45;;;;;;;17.83;13.60;;;13.70;1.00;;;;;;5058519;28;20049;-76
2022/04/20 12:48:13;;;;;;;18.45;11.25;;;13.80;1.00;;;;;;5075685;28;20472;-75
2022/04/20 12:50:41;;;;;;;14.73;12.50;;;13.90;1.00;;;;;;5075067;28;20053;-76
2022/04/20 12:53:09;;;;;;;15.85;12.30;;;13.70;1.00;;;;;;5075347;28;20520;-77
2022/04/20 13:04:13;;;;;;;17.13;11.70;;;14.10;1.00;;;;;;5085363;28;20437;-76
2022/04/20 13:06:42;;;;;;;22.58;11.65;;;14.10;1.00;;;;;;5071038;28;20045;-76
2022/04/20 13:09:09;;;;;;;15.48;12.63;;;14.20;1.00;;;;;;5055670;28;20064;-77
2022/04/20 13:11:39;;;;;;;21.88;13.50;;;13.80;1.00;;;;;;5075630;28;20055;-77
2022/04/20 13:14:08;;;;;;;18.67;14.02;;;13.80;1.00;;;;;;5092789;28;20040;-76
2022/04/20 13:16:36;;;;;;;13.82;11.45;;;13.70;1.00;;;;;;5097894;28;20048;-75
2022/04/20 13:19:05;;;;;;;15.55;11.32;;;13.70;1.00;;;;;;5080133;28;20051;-79
2022/04/20 13:21:32;;;;;;;15.82;12.07;;;13.80;1.00;;;;;;5073120;28;20113;-78
2022/04/20 13:23:59;;;;;;;20.00;13.23;;;14.00;1.00;;;;;;5078826;28;20044;-78
2022/04/20 13:29:14;;;;;;;16.88;13.00;;;14.60;1.00;;;;;;5079937;28;20076;-76
2022/04/20 13:31:41;;;;;;;16.55;13.20;;;14.60;1.00;;;;;;5084251;28;20081;-78
2022/04/20 13:34:09;;;;;;;16.55;12.52;;;14.60;1.00;;;;;;5088038;28;20046;-84
2022/04/20 13:36:36;;;;;;;16.48;12.32;;;14.70;1.00;;;;;;5067321;28;20049;-77
2022/04/20 13:39:04;;;;;;;18.75;12.30;;;14.90;1.00;;;;;;5077074;28;20036;-79
2022/04/20 13:41:32;;;;;;;16.02;12.55;;;14.50;1.00;;;;;;5056846;28;20151;-77
2022/04/20 13:43:59;;;;;;;16.55;12.55;;;14.30;1.00;;;;;;5056068;28;20469;-77
2022/04/20 13:46:28;;;;;;;19.42;13.20;;;14.30;1.00;;;;;;5055777;28;20045;-77
2022/04/20 13:48:56;;;;;;;15.50;12.60;;;14.30;1.00;;;;;;5055161;28;20060;-77
2022/04/20 13:51:23;;;;;;;15.40;12.32;;;14.20;1.00;;;;;;5038740;28;20123;-77
2022/04/20 13:53:51;;;;;;;20.60;14.65;;;14.20;1.00;;;;;;5034938;28;20060;-78
2022/04/20 13:56:18;;;;;;;18.73;14.98;;;14.10;1.00;;;;;;5019693;28;20144;-78
2022/04/20 13:58:46;;;;;;;27.02;17.35;;;14.00;1.00;;;;;;5019037;28;20041;-75
2022/04/20 14:01:14;;;;;;;25.17;17.40;;;14.20;1.00;;;;;;5034884;28;20045;-76
2022/04/20 14:03:42;;;;;;;19.83;14.30;;;14.10;1.00;;;;;;5036748;28;20047;-74
2022/04/20 14:06:11;;;;;;;23.25;17.20;;;14.00;1.00;;;;;;5058912;28;20036;-77
2022/04/20 14:08:38;;;;;;;18.30;14.80;;;14.00;1.00;;;;;;5058971;28;20033;-79